Time;durP1;ratioP1;P1;durP2;ratioP2;P2;SDS_P1;SDS_P2;PMS_P1;PMS_P2;Temp;Humidity;BMP_temperature;BMP_pressure;BME280_temperature;BME280_humidity;BME280_pressure;Samples;Min_cycle;Max_cycle;Signal;HPM_P1;HPM_P2
2020/12/04 00:02:12;;;;;;;22.65;9.13;;;-0.40;70.00;;;;;;4921984;29;20031;-84
2020/12/04 00:04:39;;;;;;;21.35;8.18;;;-0.30;70.00;;;;;;4922243;29;20038;-85
2020/12/04 00:07:05;;;;;;;24.70;10.07;;;-0.30;70.10;;;;;;4949441;28;20023;-86
2020/12/04 00:09:31;;;;;;;21.08;9.32;;;-0.30;69.90;;;;;;4953984;29;20082;-84
2020/12/04 00:11:56;;;;;;;22.40;9.43;;;-0.30;70.00;;;;;;4947819;29;20035;-85
2020/12/04 00:14:22;;;;;;;15.98;7.00;;;-0.30;70.00;;;;;;4945909;29;20027;-86
2020/12/04 00:16:48;;;;;;;26.17;8.50;;;-0.30;70.00;;;;;;4925342;29;20098;-85
2020/12/04 00:19:14;;;;;;;20.25;7.57;;;-0.30;70.10;;;;;;4948776;29;20480;-86
2020/12/04 00:21:41;;;;;;;20.33;7.95;;;-0.20;70.20;;;;;;4926870;29;20130;-87
2020/12/04 00:24:06;;;;;;;17.58;7.63;;;-0.20;70.10;;;;;;4925565;29;20019;-82
2020/12/04 00:26:38;;;;;;;26.40;9.93;;;-0.20;70.20;;;;;;4924854;29;20031;-84
2020/12/04 00:29:05;;;;;;;19.80;7.50;;;-0.20;70.20;;;;;;4951085;29;20019;-82
2020/12/04 00:31:34;;;;;;;24.73;7.90;;;-0.10;70.90;;;;;;4925242;29;20058;-81
2020/12/04 00:34:00;;;;;;;20.98;9.00;;;-0.10;70.30;;;;;;4924942;29;20514;-82
2020/12/04 00:36:28;;;;;;;23.38;9.02;;;-0.10;70.30;;;;;;4925564;29;20122;-82
2020/12/04 00:38:55;;;;;;;28.65;12.43;;;-0.10;70.20;;;;;;4956973;29;20034;-82
2020/12/04 00:41:21;;;;;;;25.95;9.32;;;-0.10;70.20;;;;;;4950211;29;20032;-82
2020/12/04 00:43:46;;;;;;;25.67;9.27;;;0.00;70.00;;;;;;4924842;29;20066;-84
2020/12/04 00:46:13;;;;;;;25.73;10.02;;;0.00;70.20;;;;;;4924881;29;20024;-82
2020/12/04 00:48:39;;;;;;;17.80;7.60;;;0.00;70.30;;;;;;4957010;29;20031;-81
2020/12/04 00:51:05;;;;;;;25.02;9.57;;;0.00;70.30;;;;;;4940419;29;20039;-82
2020/12/04 00:53:31;;;;;;;31.58;11.55;;;0.00;70.10;;;;;;4924958;29;20039;-83
2020/12/04 00:55:57;;;;;;;21.02;8.27;;;0.00;70.10;;;;;;4952881;29;20106;-82
2020/12/04 00:58:23;;;;;;;21.27;7.38;;;0.00;70.30;;;;;;4939444;29;20130;-82
2020/12/04 01:00:49;;;;;;;23.33;8.98;;;0.00;70.20;;;;;;4924751;29;20030;-82
2020/12/04 01:03:15;;;;;;;23.80;9.35;;;0.00;70.10;;;;;;4924515;29;20029;-81
2020/12/04 01:05:40;;;;;;;23.13;8.90;;;0.10;70.20;;;;;;4923776;29;20039;-81
2020/12/04 01:08:07;;;;;;;19.70;8.95;;;0.10;70.30;;;;;;4940253;29;20038;-81
2020/12/04 01:10:33;;;;;;;22.35;8.98;;;0.10;70.20;;;;;;4953391;29;20027;-82
2020/12/04 01:12:58;;;;;;;25.38;9.30;;;0.20;70.40;;;;;;4942572;29;20051;-82
2020/12/04 01:15:26;;;;;;;22.45;9.80;;;0.20;70.30;;;;;;4924660;29;20051;-85
2020/12/04 01:17:52;;;;;;;25.83;11.10;;;0.20;70.10;;;;;;4951598;28;20527;-85
2020/12/04 01:20:18;;;;;;;24.45;8.45;;;0.10;70.10;;;;;;4948845;29;20039;-85
2020/12/04 01:22:44;;;;;;;23.20;8.95;;;0.20;70.30;;;;;;4952715;29;20027;-86
2020/12/04 01:25:10;;;;;;;32.10;12.23;;;0.20;70.40;;;;;;4924327;29;20031;-86
2020/12/04 01:27:36;;;;;;;28.25;10.68;;;0.20;70.20;;;;;;4952520;29;20023;-85
2020/12/04 01:30:03;;;;;;;27.83;10.85;;;0.20;70.20;;;;;;4956064;29;20118;-84
2020/12/04 01:32:29;;;;;;;21.48;8.57;;;0.20;70.30;;;;;;4908445;29;20083;-87
2020/12/04 01:34:55;;;;;;;23.02;9.95;;;0.20;70.40;;;;;;4939981;29;20106;-84
2020/12/04 01:37:21;;;;;;;24.88;10.07;;;0.30;70.50;;;;;;4956327;29;20420;-84
2020/12/04 01:39:47;;;;;;;24.70;9.70;;;0.30;70.50;;;;;;4923953;29;20063;-85
2020/12/04 01:42:13;;;;;;;25.60;9.65;;;0.30;70.50;;;;;;4938888;29;20032;-84
2020/12/04 01:44:39;;;;;;;28.45;12.05;;;0.40;70.40;;;;;;4923752;29;20051;-85
2020/12/04 01:47:04;;;;;;;24.83;8.60;;;0.30;70.20;;;;;;4955957;29;20495;-85
2020/12/04 01:49:30;;;;;;;23.85;9.38;;;0.30;70.30;;;;;;4924086;29;20082;-85
2020/12/04 01:51:57;;;;;;;25.17;9.20;;;0.40;70.50;;;;;;4939550;29;20051;-85
2020/12/04 01:54:23;;;;;;;23.52;9.50;;;0.40;70.50;;;;;;4918113;29;20510;-86
2020/12/04 01:56:49;;;;;;;24.63;9.68;;;0.40;70.40;;;;;;4923727;29;20032;-88
2020/12/04 01:59:15;;;;;;;21.98;9.68;;;0.40;70.40;;;;;;4948536;29;20030;-87
2020/12/04 02:01:43;;;;;;;28.17;8.90;;;0.40;70.50;;;;;;4953197;29;20027;-87
2020/12/04 02:04:11;;;;;;;27.33;10.98;;;0.50;70.50;;;;;;4949465;29;20023;-89
2020/12/04 02:06:42;;;;;;;21.95;9.30;;;0.50;70.30;;;;;;4925020;29;20034;-85
2020/12/04 02:09:10;;;;;;;28.13;10.35;;;0.50;70.40;;;;;;4950377;29;20054;-85
2020/12/04 02:11:37;;;;;;;29.10;12.38;;;0.50;70.50;;;;;;4947507;29;20047;-84
2020/12/04 02:14:04;;;;;;;22.15;8.18;;;0.50;70.40;;;;;;4923870;29;20075;-85
2020/12/04 02:16:30;;;;;;;27.67;10.10;;;0.50;70.40;;;;;;4939588;29;20388;-84
2020/12/04 02:18:56;;;;;;;25.83;9.70;;;0.60;70.60;;;;;;4938162;29;20030;-85
2020/12/04 02:21:23;;;;;;;27.48;10.80;;;0.60;70.50;;;;;;4949671;29;20055;-84
2020/12/04 02:23:51;;;;;;;21.65;9.32;;;0.60;70.40;;;;;;4946474;28;20031;-85
2020/12/04 02:26:19;;;;;;;25.63;10.18;;;0.60;70.40;;;;;;4951999;29;20082;-85
2020/12/04 02:28:45;;;;;;;24.65;9.30;;;0.60;70.50;;;;;;4947822;28;20476;-85
2020/12/04 02:31:12;;;;;;;26.90;9.50;;;0.60;70.60;;;;;;4951061;29;20046;-84
2020/12/04 02:33:40;;;;;;;23.70;8.88;;;0.70;70.60;;;;;;4948771;29;20058;-85
2020/12/04 02:36:07;;;;;;;26.88;10.82;;;0.70;70.40;;;;;;4951622;29;20499;-85
2020/12/04 02:38:34;;;;;;;26.77;10.50;;;0.70;70.60;;;;;;4951915;29;20090;-85
2020/12/04 02:40:59;;;;;;;24.17;10.02;;;0.70;70.50;;;;;;4946725;29;20027;-85
2020/12/04 02:43:26;;;;;;;21.73;10.32;;;0.70;70.40;;;;;;4923500;29;20104;-85
2020/12/04 02:45:52;;;;;;;25.75;10.27;;;0.70;70.30;;;;;;4938860;29;20463;-85
2020/12/04 02:48:18;;;;;;;29.67;10.82;;;0.70;70.20;;;;;;4922990;29;20162;-84
2020/12/04 02:50:45;;;;;;;25.67;10.30;;;0.70;70.30;;;;;;4955440;29;20034;-83
2020/12/04 02:53:11;;;;;;;25.45;9.77;;;0.60;70.30;;;;;;4951620;29;20034;-83
2020/12/04 02:55:37;;;;;;;30.27;10.60;;;0.60;70.30;;;;;;4927474;29;20024;-84
2020/12/04 02:58:03;;;;;;;27.13;12.23;;;0.60;70.40;;;;;;4954537;29;20126;-84
2020/12/04 03:00:29;;;;;;;28.85;10.40;;;0.60;70.30;;;;;;4954752;28;20100;-86
2020/12/04 03:02:55;;;;;;;25.17;9.55;;;0.60;70.40;;;;;;4923183;29;20051;-85
2020/12/04 03:05:21;;;;;;;29.00;11.30;;;0.60;70.50;;;;;;4923191;29;20117;-86
2020/12/04 03:07:49;;;;;;;30.13;10.93;;;0.60;70.50;;;;;;4947845;29;20026;-86
2020/12/04 03:10:15;;;;;;;21.75;9.90;;;0.70;70.70;;;;;;4913619;29;20570;-86
2020/12/04 03:12:41;;;;;;;19.90;7.68;;;0.70;70.50;;;;;;4948510;29;20090;-86
2020/12/04 03:15:08;;;;;;;27.83;10.68;;;0.70;70.60;;;;;;4951140;29;20030;-84
2020/12/04 03:17:34;;;;;;;23.75;9.25;;;0.70;70.60;;;;;;4951287;29;20075;-84
2020/12/04 03:20:00;;;;;;;22.73;8.18;;;0.70;70.50;;;;;;4946141;29;20031;-85
2020/12/04 03:22:26;;;;;;;28.80;11.38;;;0.80;70.70;;;;;;4951212;29;20099;-84
2020/12/04 03:24:54;;;;;;;33.25;11.25;;;0.80;70.70;;;;;;4938702;29;20031;-85
2020/12/04 03:27:20;;;;;;;33.72;12.57;;;0.80;70.70;;;;;;4950776;29;20035;-84
2020/12/04 03:29:47;;;;;;;24.50;9.43;;;0.80;70.50;;;;;;4927963;29;20099;-84
2020/12/04 03:32:14;;;;;;;31.88;10.48;;;0.80;70.50;;;;;;4954378;29;20031;-85
2020/12/04 03:34:41;;;;;;;24.40;9.82;;;0.80;70.50;;;;;;4922149;29;20030;-85
2020/12/04 03:37:07;;;;;;;26.30;11.20;;;0.80;70.50;;;;;;4946170;29;20542;-85
2020/12/04 03:39:35;;;;;;;32.33;14.80;;;0.90;70.70;;;;;;4951003;29;20043;-86
2020/12/04 03:42:01;;;;;;;34.03;13.35;;;0.80;70.60;;;;;;4940416;29;20032;-86
2020/12/04 03:44:27;;;;;;;33.22;12.77;;;0.80;70.10;;;;;;4932469;29;20389;-86
2020/12/04 03:46:53;;;;;;;25.13;10.20;;;0.70;70.20;;;;;;4936144;29;20046;-86
2020/12/04 03:49:19;;;;;;;25.85;9.77;;;0.80;70.60;;;;;;4935985;29;20044;-86
2020/12/04 03:51:45;;;;;;;24.15;11.02;;;0.80;70.70;;;;;;4925979;29;20043;-87
2020/12/04 03:54:15;;;;;;;31.45;12.75;;;0.80;70.70;;;;;;4950199;29;20118;-85
2020/12/04 03:56:41;;;;;;;23.50;9.25;;;0.80;70.50;;;;;;4926360;29;20031;-85
2020/12/04 03:59:07;;;;;;;26.55;10.07;;;0.90;70.50;;;;;;4951406;29;20038;-86
2020/12/04 04:01:34;;;;;;;25.75;10.07;;;0.80;70.60;;;;;;4940661;29;20038;-85
2020/12/04 04:03:59;;;;;;;16.02;6.47;;;0.80;70.70;;;;;;4940420;29;20023;-86
2020/12/04 04:06:25;;;;;;;30.65;10.43;;;0.90;70.70;;;;;;4958087;29;20038;-86
2020/12/04 04:08:53;;;;;;;32.55;12.90;;;0.90;70.60;;;;;;4941417;29;20031;-86
2020/12/04 04:11:19;;;;;;;26.95;10.15;;;0.80;70.40;;;;;;4958013;29;20415;-86
2020/12/04 04:13:45;;;;;;;27.27;10.13;;;0.80;70.50;;;;;;4925831;29;20031;-85
2020/12/04 04:16:11;;;;;;;33.40;10.98;;;0.90;70.90;;;;;;4951034;29;20384;-87
2020/12/04 04:18:37;;;;;;;28.55;10.70;;;0.90;70.70;;;;;;4924456;29;20046;-84
2020/12/04 04:21:12;;;;;;;28.50;11.00;;;0.90;70.70;;;;;;4951492;29;20067;-83
2020/12/04 04:23:38;;;;;;;31.17;10.27;;;0.90;70.90;;;;;;4952656;29;20019;-85
2020/12/04 04:26:04;;;;;;;30.48;10.50;;;1.00;70.60;;;;;;4953276;29;20039;-84
2020/12/04 04:28:30;;;;;;;23.63;10.82;;;0.90;70.50;;;;;;4950457;29;20390;-84
2020/12/04 04:30:56;;;;;;;22.38;9.73;;;0.90;71.20;;;;;;4925239;29;20035;-84
2020/12/04 04:33:22;;;;;;;33.35;14.18;;;0.90;70.70;;;;;;4925142;29;20464;-84
2020/12/04 04:35:48;;;;;;;28.60;10.82;;;0.90;70.40;;;;;;4931519;29;20031;-85
2020/12/04 04:38:14;;;;;;;28.48;11.05;;;0.90;70.60;;;;;;4951420;29;20087;-84
2020/12/04 04:40:40;;;;;;;27.83;10.30;;;0.90;70.70;;;;;;4925364;29;20019;-84
2020/12/04 04:43:11;;;;;;;31.08;12.73;;;1.00;70.90;;;;;;4924680;29;20102;-83
2020/12/04 04:45:41;;;;;;;27.98;11.02;;;1.00;70.60;;;;;;4949973;29;20023;-83
2020/12/04 04:48:21;;;;;;;25.38;10.60;;;0.90;70.50;;;;;;4944090;29;20027;-84
2020/12/04 04:50:47;;;;;;;29.10;11.55;;;1.00;71.30;;;;;;4963751;28;20065;-85
2020/12/04 04:53:15;;;;;;;26.80;10.68;;;1.00;70.70;;;;;;4924996;29;20032;-85
2020/12/04 04:55:42;;;;;;;28.35;11.30;;;1.00;70.90;;;;;;4953201;29;20031;-85
2020/12/04 04:58:08;;;;;;;26.33;10.30;;;1.00;70.70;;;;;;4925262;29;20038;-86
2020/12/04 05:00:34;;;;;;;25.52;10.05;;;1.10;71.00;;;;;;4941180;29;20023;-85
2020/12/04 05:03:00;;;;;;;26.75;11.23;;;1.10;71.10;;;;;;4924569;29;20459;-85
2020/12/04 05:05:43;;;;;;;23.85;9.85;;;1.10;71.00;;;;;;4939750;29;20031;-85
2020/12/04 05:08:16;;;;;;;29.60;11.82;;;1.20;71.00;;;;;;4956575;29;20023;-85
2020/12/04 05:10:44;;;;;;;23.88;10.43;;;1.20;70.90;;;;;;4951726;29;20024;-84
2020/12/04 05:13:10;;;;;;;26.08;9.85;;;1.20;70.80;;;;;;4924610;29;20043;-84
2020/12/04 05:15:37;;;;;;;22.40;9.25;;;1.20;70.90;;;;;;4952208;29;20019;-85
2020/12/04 05:18:05;;;;;;;27.90;10.77;;;1.20;70.80;;;;;;4949746;29;20027;-85
2020/12/04 05:20:32;;;;;;;20.38;9.10;;;1.20;70.70;;;;;;4956349;29;20053;-85
2020/12/04 05:23:01;;;;;;;27.58;10.38;;;1.20;71.00;;;;;;4956188;29;20375;-85
2020/12/04 05:25:39;;;;;;;22.77;9.80;;;1.20;70.80;;;;;;4945970;29;20181;-84
2020/12/04 05:28:10;;;;;;;27.25;9.80;;;1.20;70.80;;;;;;4946169;29;20472;-85
2020/12/04 05:30:36;;;;;;;28.30;9.77;;;1.20;70.90;;;;;;4950079;29;20031;-84
2020/12/04 05:33:06;;;;;;;31.25;12.93;;;1.20;70.90;;;;;;4924301;29;20042;-85
2020/12/04 05:35:32;;;;;;;28.67;10.63;;;1.30;71.00;;;;;;4956927;29;20047;-84
2020/12/04 05:38:16;;;;;;;27.15;12.60;;;1.30;71.00;;;;;;4927216;29;20037;-85
2020/12/04 05:40:45;;;;;;;29.65;10.73;;;1.30;70.70;;;;;;4949529;29;20392;-84
2020/12/04 05:43:12;;;;;;;27.42;10.27;;;1.20;70.60;;;;;;4952494;29;20519;-85
2020/12/04 05:45:38;;;;;;;29.38;12.48;;;1.20;70.80;;;;;;4955846;29;20794;-85
2020/12/04 05:48:15;;;;;;;22.65;9.90;;;1.30;71.00;;;;;;4924072;29;20054;-85
2020/12/04 05:50:42;;;;;;;27.15;10.23;;;1.30;71.00;;;;;;4923769;29;20042;-84
2020/12/04 05:53:10;;;;;;;19.45;8.02;;;1.30;70.80;;;;;;4939816;29;20128;-84
2020/12/04 05:55:37;;;;;;;26.90;10.98;;;1.30;70.90;;;;;;4951808;29;20031;-84
2020/12/04 05:58:04;;;;;;;22.13;9.70;;;1.30;70.90;;;;;;4955688;29;20020;-84
2020/12/04 06:00:30;;;;;;;29.55;12.50;;;1.30;71.00;;;;;;4946379;29;20480;-84
2020/12/04 06:03:02;;;;;;;6.90;2.95;;;1.30;70.80;;;;;;4951184;29;20059;-85
2020/12/04 06:05:28;;;;;;;19.42;8.23;;;1.30;70.50;;;;;;4948025;29;20027;-84
2020/12/04 06:08:05;;;;;;;25.15;10.15;;;1.20;70.50;;;;;;4952022;29;20495;-84
2020/12/04 06:10:32;;;;;;;23.20;10.70;;;1.20;70.50;;;;;;4949827;29;20038;-83
2020/12/04 06:13:00;;;;;;;28.30;10.38;;;1.20;70.60;;;;;;4923724;29;20028;-83
2020/12/04 06:15:27;;;;;;;24.80;10.07;;;1.10;70.70;;;;;;4951847;29;20027;-91
2020/12/04 06:18:04;;;;;;;23.27;9.50;;;1.10;70.70;;;;;;4956412;29;20058;-91
2020/12/04 06:20:44;;;;;;;27.20;10.23;;;1.20;71.10;;;;;;4956188;29;20485;-91
2020/12/04 06:23:18;;;;;;;24.17;9.15;;;1.20;70.90;;;;;;4952434;29;20027;-91
2020/12/04 06:25:58;;;;;;;17.98;7.78;;;1.20;70.90;;;;;;4923903;29;20027;-86
2020/12/04 06:28:28;;;;;;;23.15;9.02;;;1.20;70.70;;;;;;4948471;29;20078;-86
2020/12/04 06:31:00;;;;;;;26.02;9.93;;;1.20;70.50;;;;;;4967722;28;20034;-84
2020/12/04 06:33:46;;;;;;;26.25;9.35;;;1.10;70.30;;;;;;4952311;29;20078;-85
2020/12/04 06:36:34;;;;;;;26.60;10.02;;;1.00;70.20;;;;;;4950137;29;20027;-86
2020/12/04 06:39:02;;;;;;;23.48;9.27;;;1.00;70.20;;;;;;4949728;29;20019;-86
2020/12/04 06:41:34;;;;;;;24.20;9.38;;;0.90;70.20;;;;;;4946865;29;20027;-87
2020/12/04 06:44:16;;;;;;;28.75;11.30;;;0.90;70.10;;;;;;4951832;29;20039;-87
2020/12/04 06:46:58;;;;;;;21.60;8.88;;;0.80;70.10;;;;;;4950265;29;20167;-85
2020/12/04 06:49:36;;;;;;;22.48;9.07;;;0.70;70.20;;;;;;4923131;29;20031;-83
2020/12/04 06:52:17;;;;;;;22.83;9.30;;;0.70;70.30;;;;;;4932790;29;20403;-85
2020/12/04 06:54:49;;;;;;;28.70;10.93;;;0.70;70.30;;;;;;4952014;29;20024;-87
2020/12/04 06:57:20;;;;;;;22.95;9.55;;;0.60;70.30;;;;;;4947052;29;20517;-86
2020/12/04 06:59:46;;;;;;;27.00;10.25;;;0.60;70.20;;;;;;4947873;29;20023;-85
2020/12/04 07:02:16;;;;;;;24.23;9.30;;;0.60;70.10;;;;;;4950149;29;20491;-88
2020/12/04 07:04:47;;;;;;;24.33;10.00;;;0.50;70.20;;;;;;4949379;29;20031;-89
2020/12/04 07:07:19;;;;;;;19.27;8.38;;;0.50;70.10;;;;;;4946929;29;20030;-89
2020/12/04 07:09:55;;;;;;;24.23;10.52;;;0.40;70.10;;;;;;4951519;29;20023;-87
2020/12/04 07:12:22;;;;;;;24.23;9.82;;;0.50;71.10;;;;;;4949362;29;20039;-89
2020/12/04 07:14:56;;;;;;;25.85;10.00;;;0.50;70.60;;;;;;4918168;29;20023;-89
2020/12/04 07:17:24;;;;;;;25.42;10.10;;;0.60;70.90;;;;;;4950243;29;20023;-88
2020/12/04 07:19:53;;;;;;;25.13;10.35;;;0.70;71.70;;;;;;4948752;29;20051;-89
2020/12/04 07:22:20;;;;;;;28.77;11.25;;;0.70;70.90;;;;;;4923147;29;20039;-89
2020/12/04 07:24:48;;;;;;;31.52;13.30;;;0.80;71.00;;;;;;4923270;29;20035;-88
2020/12/04 07:27:17;;;;;;;26.13;9.48;;;0.80;70.80;;;;;;4946980;29;20058;-89
2020/12/04 07:29:44;;;;;;;22.02;10.65;;;0.90;70.80;;;;;;4951608;29;20027;-89
2020/12/04 07:32:18;;;;;;;29.08;13.05;;;0.90;70.90;;;;;;4944855;29;20053;-88
2020/12/04 07:34:44;;;;;;;;;;;0.90;70.80;;;;;;4918907;29;20039;-90
2020/12/04 07:37:13;;;;;;;21.45;8.35;;;0.90;71.10;;;;;;4949927;29;20347;-91
2020/12/04 07:39:49;;;;;;;25.92;9.38;;;1.10;71.30;;;;;;4946770;29;20078;-95
2020/12/04 07:45:20;;;;;;;24.38;9.10;;;1.20;71.30;;;;;;4915590;29;20130;-92
2020/12/04 07:51:38;;;;;;;17.02;8.10;;;1.30;71.10;;;;;;4932132;29;20511;-94
2020/12/04 07:54:45;;;;;;;22.50;9.65;;;1.30;71.20;;;;;;4931323;29;20030;-91
2020/12/04 07:57:20;;;;;;;26.70;9.93;;;1.30;71.20;;;;;;4904926;29;20028;-90
2020/12/04 08:00:47;;;;;;;;;;;;;;;;;;;;;
2020/12/04 08:04:22;;;;;;;;;;;;;;;;;;;;;
2020/12/04 08:07:30;;;;;;;19.90;8.98;;;1.50;71.50;;;;;;4847634;29;20038;-93
2020/12/04 08:10:12;;;;;;;22.75;9.13;;;1.70;71.60;;;;;;4753883;30;20032;-91
2020/12/04 08:12:42;;;;;;;19.60;8.68;;;1.80;71.50;;;;;;4750833;30;20036;-94
2020/12/04 08:15:18;;;;;;;18.30;8.27;;;1.80;71.10;;;;;;4815476;29;20038;-91
2020/12/04 08:17:45;;;;;;;25.45;11.75;;;1.80;71.30;;;;;;4822654;29;20026;-91
2020/12/04 08:20:19;;;;;;;27.17;10.20;;;1.80;71.20;;;;;;4905696;29;20126;-93
2020/12/04 08:22:52;;;;;;;32.55;12.15;;;1.80;71.10;;;;;;4937458;29;20050;-91
2020/12/04 08:25:25;;;;;;;29.40;10.48;;;1.80;71.00;;;;;;4933110;29;20039;-92
2020/12/04 08:27:56;;;;;;;30.88;10.85;;;1.80;71.30;;;;;;4938246;29;20030;-94
2020/12/04 08:30:27;;;;;;;26.25;8.73;;;1.80;71.50;;;;;;4926928;29;20028;-93
2020/12/04 08:33:05;;;;;;;29.13;12.43;;;1.80;71.50;;;;;;4948214;29;20485;-90
2020/12/04 08:35:43;;;;;;;26.10;11.15;;;2.00;71.50;;;;;;4939442;29;20024;-95
2020/12/04 08:38:32;;;;;;;30.10;11.73;;;1.90;71.40;;;;;;4953848;29;20058;-94
2020/12/04 08:41:02;;;;;;;24.40;10.15;;;2.10;71.90;;;;;;4912438;29;20059;-92
2020/12/04 08:47:01;;;;;;;24.00;8.55;;;2.30;72.10;;;;;;4962487;29;20187;-94
2020/12/04 08:49:33;;;;;;;31.15;11.07;;;2.50;72.20;;;;;;4940769;29;20118;-94
2020/12/04 08:51:59;;;;;;;25.45;10.82;;;2.50;71.50;;;;;;4949331;29;20096;-91
2020/12/04 08:54:27;;;;;;;22.40;10.07;;;2.50;71.20;;;;;;4954998;29;20034;-94
2020/12/04 08:56:55;;;;;;;25.05;10.38;;;2.50;71.50;;;;;;4943624;29;20047;-93
2020/12/04 08:59:27;;;;;;;25.00;10.73;;;2.40;71.50;;;;;;4971465;28;20113;-93
2020/12/04 09:02:07;;;;;;;24.50;9.18;;;2.70;72.50;;;;;;4957184;29;20020;-94
2020/12/04 09:04:37;;;;;;;22.63;9.50;;;2.90;72.80;;;;;;4948328;29;20038;-94
2020/12/04 09:07:03;;;;;;;23.60;9.05;;;3.00;72.40;;;;;;4957633;28;20026;-96
2020/12/04 09:09:31;;;;;;;30.90;11.98;;;3.20;72.80;;;;;;4951535;29;20031;-93
2020/12/04 09:11:58;;;;;;;25.88;10.60;;;3.30;72.70;;;;;;4955791;29;20027;-91
2020/12/04 09:14:55;;;;;;;27.83;11.77;;;3.40;72.20;;;;;;4955112;29;20042;-92
2020/12/04 09:17:23;;;;;;;26.67;10.68;;;3.60;73.00;;;;;;4884089;29;20132;-92
2020/12/04 09:19:59;;;;;;;21.23;9.45;;;3.70;72.30;;;;;;4885217;29;20058;-96
2020/12/04 09:22:30;;;;;;;25.58;11.13;;;3.80;72.00;;;;;;4943196;29;20019;-96
2020/12/04 09:24:59;;;;;;;24.77;11.25;;;3.80;71.30;;;;;;4953498;29;20376;-92
2020/12/04 09:27:27;;;;;;;25.17;10.43;;;3.80;71.50;;;;;;4950492;29;20027;-95
2020/12/04 09:29:54;;;;;;;22.83;10.25;;;3.70;71.40;;;;;;4954392;29;20058;-95
2020/12/04 09:35:45;;;;;;;24.27;9.23;;;3.60;71.50;;;;;;4960242;29;20043;-92
2020/12/04 09:38:14;;;;;;;27.77;10.80;;;3.60;71.70;;;;;;4929045;29;20086;-89
2020/12/04 09:40:50;;;;;;;20.95;9.35;;;3.70;71.90;;;;;;4940305;29;20028;-91
2020/12/04 09:43:25;;;;;;;28.65;11.93;;;3.80;72.40;;;;;;4948799;29;20024;-93
2020/12/04 09:46:16;;;;;;;27.95;11.43;;;3.90;72.00;;;;;;4931130;29;20106;-92
2020/12/04 09:52:04;;;;;;;25.38;9.95;;;4.20;72.90;;;;;;4970055;29;20054;-92
2020/12/04 09:54:43;;;;;;;21.23;9.25;;;4.40;73.50;;;;;;4943348;29;20028;-93
2020/12/04 09:57:12;;;;;;;25.50;9.32;;;4.80;73.40;;;;;;4973662;28;20075;-92
2020/12/04 09:59:39;;;;;;;20.58;8.77;;;4.90;73.00;;;;;;4942858;29;20114;-93
2020/12/04 10:02:09;;;;;;;23.58;10.65;;;5.00;72.50;;;;;;4946721;29;20027;-93
2020/12/04 10:04:40;;;;;;;21.58;9.85;;;5.00;71.80;;;;;;4958430;29;20023;-93
2020/12/04 10:07:08;;;;;;;22.35;9.57;;;5.20;73.30;;;;;;4943023;29;20019;-93
2020/12/04 10:09:35;;;;;;;23.52;9.52;;;5.50;73.50;;;;;;4946411;29;20550;-80
2020/12/04 10:12:01;;;;;;;22.58;10.35;;;5.60;73.20;;;;;;4924491;29;20134;-79
2020/12/04 10:14:26;;;;;;;21.80;9.77;;;5.70;72.70;;;;;;4924030;29;20094;-80
2020/12/04 10:16:54;;;;;;;21.05;8.77;;;5.90;72.80;;;;;;4948343;29;20038;-80
2020/12/04 10:19:21;;;;;;;20.20;8.95;;;5.90;72.10;;;;;;4925228;29;20415;-82
2020/12/04 10:21:48;;;;;;;20.25;8.68;;;5.80;71.60;;;;;;4949347;29;20027;-80
2020/12/04 10:24:15;;;;;;;25.77;9.98;;;5.70;71.40;;;;;;4938002;29;20058;-80
2020/12/04 10:26:44;;;;;;;22.02;9.57;;;5.70;71.90;;;;;;4950209;29;20066;-81
2020/12/04 10:29:10;;;;;;;27.48;11.00;;;5.70;72.20;;;;;;4941188;29;20019;-80
2020/12/04 10:31:37;;;;;;;23.98;10.27;;;5.80;72.00;;;;;;4923453;29;20492;-80
2020/12/04 10:34:03;;;;;;;22.88;10.10;;;5.70;71.80;;;;;;4923530;29;20550;-80
2020/12/04 10:36:30;;;;;;;19.48;8.00;;;5.80;72.40;;;;;;4923055;29;20053;-80
2020/12/04 10:38:57;;;;;;;26.95;11.00;;;5.90;72.50;;;;;;4938618;29;20110;-80
2020/12/04 10:41:23;;;;;;;21.77;9.40;;;5.90;72.40;;;;;;4942672;29;20039;-81
2020/12/04 10:43:50;;;;;;;25.55;10.02;;;5.90;71.90;;;;;;4951560;29;20106;-80
2020/12/04 10:46:19;;;;;;;21.95;9.70;;;5.90;72.50;;;;;;4947897;29;20051;-81
2020/12/04 10:48:45;;;;;;;23.33;10.90;;;6.10;72.70;;;;;;4937412;29;20472;-79
2020/12/04 10:51:11;;;;;;;22.15;9.30;;;6.10;72.40;;;;;;4922606;29;20038;-79
2020/12/04 10:53:37;;;;;;;23.67;11.13;;;6.30;73.60;;;;;;4961737;28;20166;-81
2020/12/04 10:56:03;;;;;;;21.27;9.88;;;6.50;73.20;;;;;;4940265;29;20114;-79
2020/12/04 10:58:29;;;;;;;20.52;9.55;;;6.80;74.30;;;;;;4962570;28;20027;-79
2020/12/04 11:00:55;;;;;;;24.88;9.77;;;7.20;74.70;;;;;;4951381;29;20038;-80
2020/12/04 11:05:53;;;;;;;20.83;8.93;;;7.70;74.00;;;;;;4942413;29;20019;-80
2020/12/04 11:08:19;;;;;;;22.48;10.13;;;7.90;73.30;;;;;;4971404;28;20476;-80
2020/12/04 11:10:45;;;;;;;19.92;10.57;;;7.80;71.80;;;;;;4954001;29;20038;-79
2020/12/04 11:13:11;;;;;;;23.50;10.68;;;7.60;71.10;;;;;;4939006;29;20039;-79
2020/12/04 11:15:37;;;;;;;22.92;9.98;;;7.20;70.10;;;;;;4946750;29;20165;-79
2020/12/04 11:18:03;;;;;;;18.67;8.23;;;7.00;70.90;;;;;;4942519;29;20031;-80
2020/12/04 11:20:30;;;;;;;18.92;9.27;;;6.90;71.00;;;;;;4953767;28;20031;-79
2020/12/04 11:22:56;;;;;;;19.50;9.15;;;6.70;70.50;;;;;;4920838;29;20031;-81
2020/12/04 11:25:25;;;;;;;20.35;10.32;;;6.60;71.10;;;;;;4964352;28;20117;-83
2020/12/04 11:27:52;;;;;;;22.52;9.82;;;6.60;71.40;;;;;;4946478;29;20432;-82
2020/12/04 11:30:21;;;;;;;23.30;9.90;;;6.70;72.40;;;;;;4945845;29;20487;-82
2020/12/04 11:32:48;;;;;;;19.15;7.55;;;6.80;72.60;;;;;;4939902;29;20082;-82
2020/12/04 11:35:19;;;;;;;21.20;10.30;;;7.10;74.20;;;;;;4952634;29;20023;-82
2020/12/04 11:37:48;;;;;;;19.20;8.90;;;7.30;73.70;;;;;;4948982;29;20444;-83
2020/12/04 11:40:16;;;;;;;19.20;8.43;;;7.40;71.60;;;;;;4934731;29;20024;-82
2020/12/04 11:42:46;;;;;;;19.48;8.68;;;7.10;70.60;;;;;;4950290;29;20035;-82
2020/12/04 11:45:13;;;;;;;19.85;9.13;;;6.80;69.50;;;;;;4947325;29;20047;-82
2020/12/04 11:47:39;;;;;;;18.33;9.15;;;6.50;69.80;;;;;;4922229;29;20028;-82
2020/12/04 11:50:08;;;;;;;21.95;9.75;;;6.20;69.80;;;;;;4948669;29;20026;-81
2020/12/04 11:52:37;;;;;;;21.27;9.18;;;6.10;70.40;;;;;;4945263;29;20046;-82
2020/12/04 11:55:09;;;;;;;23.67;10.05;;;6.00;70.50;;;;;;4925397;29;20031;-84
2020/12/04 11:57:35;;;;;;;20.90;9.23;;;5.90;70.40;;;;;;4947707;29;20073;-82
2020/12/04 12:00:11;;;;;;;21.20;8.65;;;5.80;71.10;;;;;;4952582;29;20109;-82
2020/12/04 12:02:37;;;;;;;19.55;8.85;;;5.90;72.00;;;;;;4949528;28;20027;-82
2020/12/04 12:05:06;;;;;;;20.48;8.70;;;5.90;72.10;;;;;;4949444;29;20109;-82
2020/12/04 12:07:32;;;;;;;16.80;7.90;;;6.10;71.90;;;;;;4951940;29;20122;-82
2020/12/04 12:10:04;;;;;;;21.15;9.55;;;6.20;71.70;;;;;;4966605;28;20023;-82
2020/12/04 12:12:32;;;;;;;21.83;9.48;;;6.20;71.30;;;;;;4947859;29;20047;-82
2020/12/04 12:14:58;;;;;;;19.05;8.60;;;6.20;71.60;;;;;;4944045;29;20375;-81
2020/12/04 12:17:24;;;;;;;19.83;8.50;;;6.20;71.50;;;;;;4943662;29;20036;-83
2020/12/04 12:19:50;;;;;;;23.08;9.15;;;6.20;71.00;;;;;;4946627;29;20047;-80
2020/12/04 12:22:18;;;;;;;19.90;8.93;;;6.20;71.40;;;;;;4940910;29;20028;-81
2020/12/04 12:24:45;;;;;;;16.83;7.55;;;6.20;71.30;;;;;;4925692;29;20101;-83
2020/12/04 12:27:11;;;;;;;17.60;8.10;;;6.20;71.90;;;;;;4957825;29;20039;-83
2020/12/04 12:29:37;;;;;;;20.70;8.93;;;6.10;71.00;;;;;;4925147;29;20119;-82
2020/12/04 12:32:07;;;;;;;17.38;8.02;;;6.10;70.90;;;;;;4951229;29;20039;-83
2020/12/04 12:35:11;;;;;;;19.85;8.57;;;6.10;71.00;;;;;;4941389;29;20030;-82
2020/12/04 12:37:29;;;;;;;19.92;8.55;;;6.00;70.60;;;;;;4940060;29;20043;-83
2020/12/04 12:39:55;;;;;;;19.15;8.38;;;6.00;71.00;;;;;;4944750;29;20019;-84
2020/12/04 12:42:21;;;;;;;21.70;8.95;;;6.00;70.90;;;;;;4940219;28;20146;-83
2020/12/04 12:44:46;;;;;;;20.35;8.73;;;5.80;70.30;;;;;;4962809;28;20039;-84
2020/12/04 12:47:15;;;;;;;21.55;9.70;;;5.70;70.10;;;;;;4925317;29;20046;-81
2020/12/04 12:49:42;;;;;;;18.52;7.70;;;5.70;70.40;;;;;;4934463;29;20023;-82
2020/12/04 12:52:09;;;;;;;19.55;8.25;;;5.60;70.60;;;;;;4945482;29;20134;-82
2020/12/04 12:54:35;;;;;;;14.88;6.63;;;5.50;70.50;;;;;;4939617;29;20035;-83
2020/12/04 12:57:00;;;;;;;18.90;8.70;;;5.50;70.50;;;;;;4938995;29;20103;-84
2020/12/04 12:59:26;;;;;;;21.40;7.90;;;5.60;71.10;;;;;;4952633;29;20114;-85
2020/12/04 13:01:53;;;;;;;19.98;8.80;;;5.60;70.70;;;;;;4949900;29;20030;-83
2020/12/04 13:04:19;;;;;;;21.17;9.63;;;5.60;71.00;;;;;;4954091;29;20031;-83
2020/12/04 13:06:45;;;;;;;18.52;8.73;;;5.60;70.60;;;;;;4943513;29;20031;-83
2020/12/04 13:09:11;;;;;;;22.30;9.18;;;5.60;70.70;;;;;;4941187;29;20027;-82
2020/12/04 13:11:38;;;;;;;18.20;8.35;;;5.60;70.80;;;;;;4954875;29;20093;-83
2020/12/04 13:14:07;;;;;;;15.35;7.47;;;5.70;70.80;;;;;;4949028;28;20038;-84
2020/12/04 13:16:36;;;;;;;21.60;8.35;;;5.50;70.70;;;;;;4955015;29;20030;-83